Inglis, FL (34449)

11:00 PM EDT on October 01, 2014 (GMT -0400)
Withlacoochee Gulf Preserve | Change Station
CLOSE
Current Station
Personal Weather Station
Location: Yankeetown, FL
Elevation: 26 ft
Nearby Weather Stations

Elev 26 ft 29.03 °N, 82.73 °W | Updated 37 seconds ago

Partly Cloudy
Partly Cloudy
75.4 °F
Feels Like 74 °F
N
5.0
Wind Variable Wind from East
Gusts 6.0 mph

Today
High -- | Low -- °F
--% Chance of Precip.
Yesterday
High -- | Low -- °F
Precip. -- in
7:24 AM 7:16 PM
First Quarter, 54% visible
Pressure 29.87 in
Visibility 10.0 miles
Clouds Scattered Clouds 900 ft
Scattered Clouds 2700 ft
Mostly Cloudy 5000 ft
Heat Index 74 °F
Dew Point 73 °F
Humidity 93%
Rainfall 0.00 in
Snow Depth Not available.
UV 0.0 out of 12
Pollen 5.40 out of 12
Air Quality Not available.
Flu Activity Not available.
METAR KCGC 010335Z AUTO 07005KT 10SM SCT009 SCT027 BKN050 23/22 A2987 RMK AO2 PWINO

More Conditions Fewer Conditions

Pressure 29.87 in
Visibility 10.0 miles
Clouds Scattered Clouds 900 ft
Scattered Clouds 2700 ft
Mostly Cloudy 5000 ft
Heat Index 74 °F
Dew Point 73 °F
Humidity 93%
Rainfall 0.00 in
Snow Depth Not available.
UV 0.0 out of 12
Pollen 5.40 out of 12
Air Quality Not available.
Flu Activity Not available.
METAR KCGC 010335Z AUTO 07005KT 10SM SCT009 SCT027 BKN050 23/22 A2987 RMK AO2 PWINO

More Conditions Fewer Conditions

10-Day Weather Forecast

Almanac

Astronomy

Oct. 01, 2014 Rise Set
Actual Time 7:24 AM EDT 7:16 PM EDT
Civil Twilight 7:00 AM EDT 7:40 PM EDT
Nautical Twilight 6:32 AM EDT 8:07 PM EDT
Astronomical Twilight 6:05 AM EDT 8:35 PM EDT
Moon 2:04 PM EDT (10/1) 12:06 AM EDT (10/1)
Length of Visible Light 12h 39m
Length of Day
11h 52m
Tomorrow will be 1m 44s shorter.
First Quarter, 54% of the Moon is Illuminated
Today
First Quarter
Oct 8
Full
Oct 15
Last Quarter
Oct 23
New
Oct 30
First Quarter

Today's Extremes

State Highs State Lows

Community

WunderPhotos

Upload Photos

1,758,157 photos uploaded!

WunderBlogs® & News

Nearby

Snow Depth

Station Depth Elevation
No new snow has been reported.

Earthquake Activity

City Distance Mag. Time & Date
No recent earthquake activity has been reported nearby.
Minimum magnitude displayed is 2.5.

Coastal Water Temperatures

Place Temperature
No Stations Reporting

Nearby Weather Stations